createdAt,value
2023-05-16T00:00:35.324Z,15.90
2023-05-16T00:01:38.290Z,15.80
2023-05-16T00:02:40.787Z,15.80
2023-05-16T00:03:43.376Z,15.70
2023-05-16T00:04:46.283Z,15.70
2023-05-16T00:05:48.476Z,15.70
2023-05-16T00:06:50.653Z,15.70
2023-05-16T00:07:52.773Z,15.70
2023-05-16T00:08:56.276Z,15.80
2023-05-16T00:09:58.552Z,15.80
2023-05-16T00:11:00.734Z,15.80
2023-05-16T00:12:03.097Z,15.80
2023-05-16T00:13:07.140Z,15.80
2023-05-16T00:14:09.268Z,15.80
2023-05-16T00:15:14.286Z,15.80
2023-05-16T00:16:16.407Z,15.70
2023-05-16T00:17:20.576Z,15.70
2023-05-16T00:18:27.172Z,15.70
2023-05-16T00:19:30.269Z,15.70
2023-05-16T00:20:32.465Z,15.70
2023-05-16T00:21:34.764Z,15.70
2023-05-16T00:22:37.082Z,15.60
2023-05-16T00:23:39.242Z,15.60
2023-05-16T00:24:42.766Z,15.60
2023-05-16T00:25:45.079Z,15.70
2023-05-16T00:26:47.248Z,15.70
2023-05-16T00:27:49.373Z,15.70
2023-05-16T00:28:51.679Z,15.70
2023-05-16T00:29:53.790Z,15.70
2023-05-16T00:30:56.153Z,15.70
2023-05-16T00:31:58.416Z,15.70
2023-05-16T00:33:00.647Z,15.70
2023-05-16T00:34:02.857Z,15.80
2023-05-16T00:35:06.560Z,15.80
2023-05-16T00:36:08.883Z,15.80
2023-05-16T00:37:11.012Z,15.80
2023-05-16T00:38:13.140Z,15.70
2023-05-16T00:39:15.404Z,15.70
2023-05-16T00:40:19.340Z,15.70
2023-05-16T00:41:21.947Z,15.60
2023-05-16T00:42:24.156Z,15.60
2023-05-16T00:43:27.743Z,15.60
2023-05-16T00:44:31.061Z,15.50
2023-05-16T00:45:33.174Z,15.50
2023-05-16T00:46:36.244Z,15.50
2023-05-16T00:47:38.476Z,15.50
2023-05-16T00:48:40.680Z,15.50
2023-05-16T00:49:43.229Z,15.40
2023-05-16T00:50:45.815Z,15.40
2023-05-16T00:51:48.796Z,15.40
2023-05-16T00:52:51.419Z,15.40
2023-05-16T00:53:55.278Z,15.40
2023-05-16T00:54:57.586Z,15.40
2023-05-16T00:56:01.484Z,15.40
2023-05-16T00:57:04.858Z,15.40
2023-05-16T00:58:07.332Z,15.40
2023-05-16T00:59:09.495Z,15.40
2023-05-16T01:00:15.409Z,15.40
2023-05-16T01:01:20.034Z,15.30
2023-05-16T01:02:22.580Z,15.30
2023-05-16T01:03:25.077Z,15.30
2023-05-16T01:04:28.230Z,15.30
2023-05-16T01:05:30.577Z,15.40
2023-05-16T01:06:34.271Z,15.40
2023-05-16T01:07:36.903Z,15.40
2023-05-16T01:08:39.093Z,15.40
2023-05-16T01:09:41.689Z,15.40
2023-05-16T01:10:53.604Z,15.40
2023-05-16T01:12:06.048Z,15.40
2023-05-16T01:13:16.177Z,15.40
2023-05-16T01:14:24.113Z,15.30
2023-05-16T01:15:29.313Z,15.30
2023-05-16T01:16:37.807Z,15.30
2023-05-16T01:17:51.651Z,15.30
2023-05-16T01:19:02.938Z,15.30
2023-05-16T01:20:15.677Z,15.20
2023-05-16T01:21:32.745Z,15.20
2023-05-16T01:22:48.210Z,15.20
2023-05-16T01:23:53.616Z,15.20
2023-05-16T01:25:06.103Z,15.20
2023-05-16T01:26:18.680Z,15.20
2023-05-16T01:27:21.608Z,15.20
2023-05-16T01:28:24.549Z,15.20
2023-05-16T01:29:26.792Z,15.20
2023-05-16T01:30:35.280Z,15.20
2023-05-16T01:32:47.870Z,15.20
2023-05-16T01:33:50.654Z,15.20
2023-05-16T01:34:53.387Z,15.20
2023-05-16T01:36:03.855Z,15.10
2023-05-16T01:37:12.862Z,15.10
2023-05-16T01:38:24.985Z,15.10
2023-05-16T01:39:34.728Z,15.10
2023-05-16T01:40:45.766Z,15.00
2023-05-16T01:41:55.600Z,15.00
2023-05-16T01:43:00.103Z,14.90
2023-05-16T01:44:08.480Z,14.90
2023-05-16T01:45:18.256Z,14.90
2023-05-16T01:46:26.260Z,14.90
2023-05-16T01:47:30.328Z,14.80
2023-05-16T01:48:39.488Z,14.80
2023-05-16T01:49:46.832Z,14.80
2023-05-16T01:50:54.497Z,14.80
2023-05-16T01:52:01.610Z,14.80
2023-05-16T01:53:09.272Z,14.80
2023-05-16T01:54:13.873Z,14.80
2023-05-16T01:55:21.167Z,14.70
2023-05-16T01:56:24.460Z,14.70
2023-05-16T01:57:29.291Z,14.70
2023-05-16T01:58:34.786Z,14.70
2023-05-16T01:59:38.532Z,14.70
2023-05-16T02:00:41.041Z,14.70
2023-05-16T02:01:43.448Z,14.70
2023-05-16T02:02:45.907Z,14.70
2023-05-16T02:03:48.159Z,14.70
2023-05-16T02:04:51.176Z,14.70
2023-05-16T02:05:53.370Z,14.70
2023-05-16T02:06:55.844Z,14.70
2023-05-16T02:07:58.086Z,14.70
2023-05-16T02:09:00.230Z,14.70
2023-05-16T02:10:02.599Z,14.70
2023-05-16T02:11:05.406Z,14.70
2023-05-16T02:12:08.147Z,14.70
2023-05-16T02:13:11.692Z,14.70
2023-05-16T02:14:14.216Z,14.60
2023-05-16T02:15:16.679Z,14.60
2023-05-16T02:16:18.873Z,14.60
2023-05-16T02:17:21.250Z,14.60
2023-05-16T02:18:23.747Z,14.60
2023-05-16T02:19:26.016Z,14.60
2023-05-16T02:20:28.219Z,14.50
2023-05-16T02:21:31.218Z,14.50
2023-05-16T02:22:33.853Z,14.50
2023-05-16T02:23:35.981Z,14.50
2023-05-16T02:24:39.334Z,14.50
2023-05-16T02:25:41.710Z,14.50
2023-05-16T02:26:44.010Z,14.50
2023-05-16T02:27:46.171Z,14.50
2023-05-16T02:28:50.072Z,14.50
2023-05-16T02:29:52.391Z,14.50
2023-05-16T02:30:58.400Z,14.50
2023-05-16T02:32:00.600Z,14.50
2023-05-16T02:33:02.800Z,14.50
2023-05-16T02:34:05.021Z,14.50
2023-05-16T02:35:08.400Z,14.50
2023-05-16T02:36:11.969Z,14.50
2023-05-16T02:37:14.236Z,14.50
2023-05-16T02:38:17.639Z,14.50
2023-05-16T02:39:19.765Z,14.40
2023-05-16T02:40:21.995Z,14.40
2023-05-16T02:41:24.228Z,14.40
2023-05-16T02:42:30.877Z,14.30
2023-05-16T02:43:33.099Z,14.30
2023-05-16T02:44:36.586Z,14.30
2023-05-16T02:45:38.729Z,14.20
2023-05-16T02:46:40.933Z,14.20
2023-05-16T02:47:43.212Z,14.30
2023-05-16T02:48:45.359Z,14.30
2023-05-16T02:49:47.512Z,14.30
2023-05-16T02:50:49.786Z,14.30
2023-05-16T02:51:51.986Z,14.20
2023-05-16T02:52:54.120Z,14.30
2023-05-16T02:54:02.775Z,14.20
2023-05-16T02:55:21.132Z,14.30
2023-05-16T02:56:29.911Z,14.30
2023-05-16T02:57:32.068Z,14.30
2023-05-16T02:58:34.158Z,14.20
2023-05-16T02:59:37.677Z,14.20
2023-05-16T03:00:40.232Z,14.30
2023-05-16T03:01:42.474Z,14.20
2023-05-16T03:02:45.930Z,14.20
2023-05-16T03:03:48.454Z,14.20
2023-05-16T03:04:50.841Z,14.20
2023-05-16T03:05:53.274Z,14.20
2023-05-16T03:06:55.470Z,14.20
2023-05-16T03:07:57.986Z,14.20
2023-05-16T03:09:00.196Z,14.20
2023-05-16T03:10:02.373Z,14.20
2023-05-16T03:11:04.603Z,14.30
2023-05-16T03:12:07.502Z,14.30
2023-05-16T03:13:09.673Z,14.20
2023-05-16T03:14:12.241Z,14.20
2023-05-16T03:15:17.119Z,14.20
2023-05-16T03:16:19.393Z,14.20
2023-05-16T03:17:21.681Z,14.20
2023-05-16T03:18:24.029Z,14.20
2023-05-16T03:19:27.184Z,14.20
2023-05-16T03:20:29.473Z,14.10
2023-05-16T03:21:31.695Z,14.20
2023-05-16T03:22:33.845Z,14.20
2023-05-16T03:23:35.983Z,14.20
2023-05-16T03:24:38.188Z,14.10
2023-05-16T03:25:40.641Z,14.20
2023-05-16T03:26:42.843Z,14.10
2023-05-16T03:27:44.960Z,14.10
2023-05-16T03:28:47.205Z,14.10
2023-05-16T03:29:49.448Z,14.10
2023-05-16T03:30:53.186Z,14.20
2023-05-16T03:31:55.419Z,14.10
2023-05-16T03:32:57.828Z,14.10
2023-05-16T03:34:00.002Z,14.10
2023-05-16T03:35:02.150Z,14.10
2023-05-16T03:36:05.492Z,14.10
2023-05-16T03:37:07.615Z,14.10
2023-05-16T03:38:10.077Z,14.10
2023-05-16T03:39:12.278Z,14.10
2023-05-16T03:40:14.653Z,14.10
2023-05-16T03:41:17.214Z,14.10
2023-05-16T03:42:19.333Z,14.10
2023-05-16T03:43:21.469Z,14.10
2023-05-16T03:44:23.751Z,14.20
2023-05-16T03:45:26.197Z,14.10
2023-05-16T03:46:30.154Z,14.10
2023-05-16T03:47:32.534Z,14.10
2023-05-16T03:48:34.717Z,14.10
2023-05-16T03:49:39.657Z,14.10
2023-05-16T03:50:42.141Z,14.10
2023-05-16T03:51:44.291Z,14.10
2023-05-16T03:52:46.598Z,14.10
2023-05-16T03:53:48.861Z,14.10
2023-05-16T03:54:51.111Z,14.10
2023-05-16T03:55:53.251Z,14.10
2023-05-16T03:56:55.457Z,14.10
2023-05-16T03:57:57.652Z,14.10
2023-05-16T03:58:59.765Z,14.10
2023-05-16T04:00:01.927Z,14.10
2023-05-16T04:01:04.194Z,14.20
2023-05-16T04:02:08.232Z,14.20
2023-05-16T04:03:11.456Z,14.20
2023-05-16T04:04:14.313Z,14.20
2023-05-16T04:05:16.540Z,14.20
2023-05-16T04:06:18.895Z,14.20
2023-05-16T04:07:23.750Z,14.30
2023-05-16T04:08:26.094Z,14.30
2023-05-16T04:09:28.376Z,14.30
2023-05-16T04:10:30.577Z,14.30
2023-05-16T04:11:33.010Z,14.30
2023-05-16T04:12:35.810Z,14.30
2023-05-16T04:13:37.999Z,14.30
2023-05-16T04:14:40.152Z,14.30
2023-05-16T04:15:42.279Z,14.30
2023-05-16T04:16:45.855Z,14.30
2023-05-16T04:17:49.422Z,14.30
2023-05-16T04:18:52.233Z,14.30
2023-05-16T04:19:54.550Z,14.30
2023-05-16T04:20:56.689Z,14.30
2023-05-16T04:21:58.790Z,14.30
2023-05-16T04:23:01.008Z,14.30
2023-05-16T04:24:03.310Z,14.30
2023-05-16T04:25:06.112Z,14.30
2023-05-16T04:26:08.741Z,14.30
2023-05-16T04:27:10.888Z,14.30
2023-05-16T04:28:13.567Z,14.30
2023-05-16T04:29:15.769Z,14.30
2023-05-16T04:30:18.214Z,14.30
2023-05-16T04:31:21.994Z,14.30
2023-05-16T04:32:24.365Z,14.40
2023-05-16T04:33:27.964Z,14.30
2023-05-16T04:34:30.724Z,14.30
2023-05-16T04:35:33.858Z,14.30
2023-05-16T04:36:37.006Z,14.30
2023-05-16T04:37:39.373Z,14.30
2023-05-16T04:38:41.969Z,14.30
2023-05-16T04:39:44.342Z,14.30
2023-05-16T04:40:46.586Z,14.40
2023-05-16T04:41:48.931Z,14.40
2023-05-16T04:42:52.349Z,14.40
2023-05-16T04:43:54.898Z,14.40
2023-05-16T04:44:57.440Z,14.40
2023-05-16T04:45:59.664Z,14.50
2023-05-16T04:47:01.843Z,14.50
2023-05-16T04:48:04.857Z,14.50
2023-05-16T04:49:08.874Z,14.50
2023-05-16T04:50:11.575Z,14.60
2023-05-16T04:51:13.794Z,14.70
2023-05-16T04:52:15.985Z,14.70
2023-05-16T04:53:18.151Z,14.80
2023-05-16T04:54:20.321Z,14.80
2023-05-16T04:55:22.489Z,14.90
2023-05-16T04:56:24.662Z,15.00
2023-05-16T04:57:27.728Z,15.00
2023-05-16T04:58:29.829Z,15.00
2023-05-16T04:59:31.918Z,15.00
2023-05-16T05:00:34.429Z,15.10
2023-05-16T05:01:37.011Z,15.10
2023-05-16T05:02:39.724Z,15.10
2023-05-16T05:03:41.916Z,15.20
2023-05-16T05:04:45.717Z,15.20
2023-05-16T05:05:48.703Z,15.20
2023-05-16T05:06:50.846Z,15.10
2023-05-16T05:07:53.306Z,15.10
2023-05-16T05:08:55.596Z,15.10
2023-05-16T05:09:57.686Z,15.10
2023-05-16T05:10:59.956Z,15.10
2023-05-16T05:12:02.134Z,15.10
2023-05-16T05:13:04.408Z,15.00
2023-05-16T05:14:06.584Z,15.00
2023-05-16T05:15:09.164Z,15.00
2023-05-16T05:16:11.786Z,15.00
2023-05-16T05:17:14.024Z,15.00
2023-05-16T05:18:16.636Z,15.00
2023-05-16T05:19:19.013Z,14.90
2023-05-16T05:20:23.414Z,14.90
2023-05-16T05:21:25.650Z,14.90
2023-05-16T05:22:27.874Z,14.90
2023-05-16T05:23:30.358Z,14.90
2023-05-16T05:24:32.943Z,15.00
2023-05-16T05:25:37.900Z,15.00
2023-05-16T05:26:40.214Z,15.00
2023-05-16T05:27:42.358Z,15.00
2023-05-16T05:28:53.948Z,15.10
2023-05-16T05:29:59.617Z,15.20
2023-05-16T05:31:01.723Z,15.20
2023-05-16T05:32:04.381Z,15.30
2023-05-16T05:33:06.780Z,15.40
2023-05-16T05:34:09.001Z,15.50
2023-05-16T05:35:11.248Z,15.60
2023-05-16T05:36:14.792Z,15.70
2023-05-16T05:37:17.101Z,15.80
2023-05-16T05:38:19.211Z,15.90
2023-05-16T05:39:21.526Z,16.00
2023-05-16T05:40:23.706Z,16.00
2023-05-16T05:41:26.837Z,16.00
2023-05-16T05:42:28.961Z,16.00
2023-05-16T05:43:31.170Z,16.10
2023-05-16T05:44:34.959Z,16.10
2023-05-16T05:45:37.675Z,16.00
2023-05-16T05:46:40.270Z,16.00
2023-05-16T05:47:42.998Z,16.00
2023-05-16T05:48:45.200Z,16.00
2023-05-16T05:49:50.521Z,16.00
2023-05-16T05:50:53.191Z,15.90
2023-05-16T05:51:57.046Z,16.00
2023-05-16T05:52:59.157Z,15.90
2023-05-16T05:54:01.740Z,15.80
2023-05-16T05:55:04.400Z,15.80
2023-05-16T05:56:06.868Z,15.80
2023-05-16T05:57:09.019Z,15.80
2023-05-16T05:58:12.461Z,15.90
2023-05-16T05:59:14.837Z,15.90
2023-05-16T06:00:17.300Z,15.90
2023-05-16T06:01:21.202Z,16.00
2023-05-16T06:02:23.536Z,16.00
2023-05-16T06:03:26.168Z,16.00
2023-05-16T06:04:28.544Z,16.10
2023-05-16T06:05:31.222Z,16.10
2023-05-16T06:06:33.918Z,16.10
2023-05-16T06:07:37.467Z,16.20
2023-05-16T06:08:39.672Z,16.20
2023-05-16T06:09:42.684Z,16.20
2023-05-16T06:10:44.843Z,16.10
2023-05-16T06:11:47.051Z,16.10
2023-05-16T06:12:49.726Z,16.10
2023-05-16T06:13:52.228Z,16.10
2023-05-16T06:14:54.381Z,16.10
2023-05-16T06:15:56.853Z,16.00
2023-05-16T06:16:58.982Z,16.00
2023-05-16T06:18:01.202Z,16.00
2023-05-16T06:19:03.956Z,16.00
2023-05-16T06:20:07.699Z,15.90
2023-05-16T06:21:09.967Z,15.90
2023-05-16T06:22:12.369Z,15.90
2023-05-16T06:23:15.945Z,15.90
2023-05-16T06:24:18.275Z,15.90
2023-05-16T06:25:20.591Z,15.90
2023-05-16T06:26:22.923Z,15.90
2023-05-16T06:27:25.655Z,16.00
2023-05-16T06:28:27.837Z,16.00
2023-05-16T06:29:30.071Z,16.00
2023-05-16T06:30:32.469Z,16.10
2023-05-16T06:31:34.650Z,16.10
2023-05-16T06:32:37.388Z,16.00
2023-05-16T06:33:39.597Z,16.10
2023-05-16T06:34:41.865Z,16.00
2023-05-16T06:35:44.039Z,16.00
2023-05-16T06:36:47.683Z,15.90
2023-05-16T06:37:49.875Z,15.90
2023-05-16T06:38:53.441Z,15.90
2023-05-16T06:39:56.026Z,15.90
2023-05-16T06:40:58.307Z,15.90
2023-05-16T06:42:00.919Z,15.90
2023-05-16T06:43:04.235Z,16.00
2023-05-16T06:44:06.653Z,15.90
2023-05-16T06:45:10.629Z,15.90
2023-05-16T06:46:12.804Z,15.90
2023-05-16T06:47:16.007Z,15.80
2023-05-16T06:48:19.195Z,15.80
2023-05-16T06:49:21.856Z,15.80
2023-05-16T06:50:24.268Z,15.80
2023-05-16T06:51:26.637Z,15.80
2023-05-16T06:52:28.872Z,15.80
2023-05-16T06:53:31.252Z,15.80
2023-05-16T06:54:35.428Z,15.80
2023-05-16T06:55:37.644Z,15.80
2023-05-16T06:56:39.903Z,15.80
2023-05-16T06:57:42.548Z,15.80
2023-05-16T06:58:45.090Z,15.80
2023-05-16T06:59:47.341Z,15.80
2023-05-16T07:00:50.168Z,15.80
2023-05-16T07:01:52.757Z,15.80
2023-05-16T07:02:55.386Z,15.80
2023-05-16T07:03:57.977Z,15.80
2023-05-16T07:05:00.314Z,15.90
2023-05-16T07:06:02.602Z,15.90
2023-05-16T07:07:07.818Z,15.90
2023-05-16T07:08:12.426Z,15.90
2023-05-16T07:09:14.730Z,15.90
2023-05-16T07:10:18.564Z,15.90
2023-05-16T07:11:21.580Z,15.90
2023-05-16T07:12:24.023Z,15.90
2023-05-16T07:13:26.603Z,15.80
2023-05-16T07:14:28.973Z,15.80
2023-05-16T07:15:31.786Z,15.80
2023-05-16T07:16:34.034Z,15.90
2023-05-16T07:17:37.244Z,15.80
2023-05-16T07:18:39.541Z,15.80
2023-05-16T07:19:41.868Z,15.80
2023-05-16T07:20:44.192Z,15.90
2023-05-16T07:21:46.352Z,15.90
2023-05-16T07:22:48.533Z,15.90
2023-05-16T07:23:50.881Z,15.90
2023-05-16T07:24:57.155Z,15.90
2023-05-16T07:26:00.862Z,15.90
2023-05-16T07:27:03.098Z,15.80
2023-05-16T07:28:05.763Z,15.90
2023-05-16T07:29:08.100Z,15.80
2023-05-16T07:30:11.798Z,15.80
2023-05-16T07:31:14.009Z,15.80
2023-05-16T07:32:16.787Z,15.90
2023-05-16T07:33:19.115Z,15.90
2023-05-16T07:34:21.425Z,15.90
2023-05-16T07:35:24.201Z,15.90
2023-05-16T07:36:26.581Z,15.80
2023-05-16T07:37:30.546Z,15.80
2023-05-16T07:38:33.495Z,15.80
2023-05-16T07:39:35.698Z,15.80
2023-05-16T07:40:38.013Z,15.80
2023-05-16T07:41:41.719Z,15.80
2023-05-16T07:42:44.638Z,15.70
2023-05-16T07:43:47.111Z,15.70
2023-05-16T07:44:49.348Z,15.70
2023-05-16T07:45:51.595Z,15.70
2023-05-16T07:46:53.782Z,15.80
2023-05-16T07:47:56.256Z,15.70
2023-05-16T07:48:58.556Z,15.70
2023-05-16T07:50:00.816Z,15.70
2023-05-16T07:51:03.145Z,15.70
2023-05-16T07:52:05.994Z,15.70
2023-05-16T07:53:08.162Z,15.70
2023-05-16T07:54:10.321Z,15.70
2023-05-16T07:55:13.000Z,15.70
2023-05-16T07:56:15.535Z,15.70
2023-05-16T07:57:19.605Z,15.70
2023-05-16T07:58:22.442Z,15.70
2023-05-16T07:59:24.689Z,15.70
2023-05-16T08:00:26.979Z,15.70
2023-05-16T08:01:29.153Z,15.70
2023-05-16T08:02:31.631Z,15.80
2023-05-16T08:03:35.335Z,15.80
2023-05-16T08:04:37.843Z,15.80
2023-05-16T08:05:41.127Z,15.80
2023-05-16T08:06:43.292Z,15.70
2023-05-16T08:07:45.458Z,15.80
2023-05-16T08:08:47.635Z,15.70
2023-05-16T08:09:49.957Z,15.70
2023-05-16T08:10:52.154Z,15.70
2023-05-16T08:11:54.985Z,15.70
2023-05-16T08:12:58.605Z,15.70
2023-05-16T08:14:00.803Z,15.70
2023-05-16T08:15:03.935Z,15.60
2023-05-16T08:16:06.581Z,15.60
2023-05-16T08:17:08.756Z,15.50
2023-05-16T08:18:17.989Z,15.60
2023-05-16T08:19:22.101Z,15.50
2023-05-16T08:20:24.457Z,15.50
2023-05-16T08:21:27.139Z,15.50
2023-05-16T08:22:29.359Z,15.40
2023-05-16T08:23:31.684Z,15.40
2023-05-16T08:24:33.891Z,15.50
2023-05-16T08:25:36.166Z,15.40
2023-05-16T08:26:38.611Z,15.50
2023-05-16T08:27:40.906Z,15.50
2023-05-16T08:28:44.536Z,15.50
2023-05-16T08:29:46.781Z,15.50
2023-05-16T08:30:49.102Z,15.50
2023-05-16T08:31:51.453Z,15.50
2023-05-16T08:32:53.933Z,15.60
2023-05-16T08:33:56.472Z,15.60
2023-05-16T08:34:58.667Z,15.60
2023-05-16T08:36:03.970Z,15.70
2023-05-16T08:37:06.525Z,15.70
2023-05-16T08:38:08.729Z,15.80
2023-05-16T08:39:13.539Z,15.90
2023-05-16T08:40:16.359Z,15.90
2023-05-16T08:41:18.667Z,16.00
2023-05-16T08:42:21.111Z,16.00
2023-05-16T08:43:23.685Z,16.10
2023-05-16T08:44:29.054Z,16.10
2023-05-16T08:45:32.018Z,16.00
2023-05-16T08:46:37.302Z,16.00
2023-05-16T08:47:41.633Z,16.00
2023-05-16T08:48:47.315Z,16.10
2023-05-16T08:49:52.346Z,16.10
2023-05-16T08:50:55.192Z,16.10
2023-05-16T08:52:00.022Z,16.20
2023-05-16T08:53:07.175Z,16.20
2023-05-16T08:54:13.619Z,16.30
2023-05-16T08:55:17.197Z,16.30
2023-05-16T08:56:19.450Z,16.30
2023-05-16T08:57:22.104Z,16.30
2023-05-16T08:58:25.024Z,16.40
2023-05-16T08:59:29.304Z,16.40
2023-05-16T09:00:32.118Z,16.40
2023-05-16T09:01:34.889Z,16.50
2023-05-16T09:02:38.010Z,16.40
2023-05-16T09:03:40.740Z,16.50
2023-05-16T09:04:45.803Z,16.60
2023-05-16T09:05:48.398Z,16.60
2023-05-16T09:06:51.158Z,16.60
2023-05-16T09:07:53.373Z,16.60
2023-05-16T09:08:55.890Z,16.70
2023-05-16T09:09:58.166Z,16.80
2023-05-16T09:11:01.812Z,16.90
2023-05-16T09:12:04.302Z,17.00
2023-05-16T09:13:06.621Z,17.20
2023-05-16T09:14:08.903Z,17.30
2023-05-16T09:15:12.678Z,17.30
2023-05-16T09:16:16.496Z,17.40
2023-05-16T09:17:28.550Z,17.40
2023-05-16T09:18:41.651Z,17.40
2023-05-16T09:19:45.196Z,17.30
2023-05-16T09:20:50.188Z,17.40
2023-05-16T09:21:52.615Z,17.40
2023-05-16T09:22:55.983Z,17.30
2023-05-16T09:24:03.354Z,17.30
2023-05-16T09:25:08.643Z,17.30
2023-05-16T09:26:16.409Z,17.30
2023-05-16T09:27:19.045Z,17.30
2023-05-16T09:28:22.774Z,17.30
2023-05-16T09:29:25.127Z,17.20
2023-05-16T09:30:31.727Z,17.20
2023-05-16T09:31:38.489Z,17.10
2023-05-16T09:32:44.708Z,17.00
2023-05-16T09:33:47.013Z,17.00
2023-05-16T09:34:51.455Z,17.00
2023-05-16T09:35:58.446Z,16.90
2023-05-16T09:37:00.732Z,16.90
2023-05-16T09:38:02.892Z,16.90
2023-05-16T09:39:07.369Z,16.90
2023-05-16T09:40:11.098Z,16.90
2023-05-16T09:41:13.517Z,16.90
2023-05-16T09:42:16.620Z,16.80
2023-05-16T09:43:21.914Z,16.80
2023-05-16T09:44:24.700Z,16.80
2023-05-16T09:45:27.231Z,16.90
2023-05-16T09:46:31.569Z,16.80
2023-05-16T09:47:35.146Z,16.80
2023-05-16T09:48:37.393Z,16.80
2023-05-16T09:49:39.605Z,16.80
2023-05-16T09:50:47.741Z,16.90
2023-05-16T09:51:50.519Z,16.90
2023-05-16T09:52:52.777Z,16.80
2023-05-16T09:53:57.770Z,16.80
2023-05-16T09:55:02.734Z,16.80
2023-05-16T09:56:07.884Z,16.80
2023-05-16T09:57:10.552Z,16.70
2023-05-16T09:58:16.798Z,16.80
2023-05-16T09:59:19.015Z,16.80
2023-05-16T10:00:21.532Z,16.80
2023-05-16T10:01:24.975Z,16.80
2023-05-16T10:02:29.111Z,16.90
2023-05-16T10:03:33.175Z,16.90
2023-05-16T10:04:38.543Z,16.90
2023-05-16T10:05:41.686Z,16.90
2023-05-16T10:06:45.992Z,16.80
2023-05-16T10:07:48.760Z,16.80
2023-05-16T10:08:51.813Z,16.80
2023-05-16T10:09:56.049Z,16.80
2023-05-16T10:10:58.430Z,16.80
2023-05-16T10:12:06.496Z,16.70
2023-05-16T10:13:11.417Z,16.70
2023-05-16T10:14:17.382Z,16.60
2023-05-16T10:15:21.019Z,16.60
2023-05-16T10:16:25.765Z,16.50
2023-05-16T10:17:33.865Z,16.40
2023-05-16T10:18:38.033Z,16.30
2023-05-16T10:19:41.078Z,16.20
2023-05-16T10:20:44.441Z,16.20
2023-05-16T10:21:52.629Z,16.20
2023-05-16T10:22:56.879Z,16.20
2023-05-16T10:24:03.320Z,16.10
2023-05-16T10:25:12.859Z,16.10
2023-05-16T10:26:17.097Z,16.10
2023-05-16T10:27:19.760Z,16.00
2023-05-16T10:28:22.171Z,16.00
2023-05-16T10:29:25.935Z,15.90
2023-05-16T10:30:28.481Z,15.90
2023-05-16T10:31:31.303Z,15.90
2023-05-16T10:32:35.532Z,15.90
2023-05-16T10:33:39.241Z,15.90
2023-05-16T10:34:42.301Z,15.90
2023-05-16T10:35:46.573Z,15.90
2023-05-16T10:36:49.402Z,15.80
2023-05-16T10:37:52.396Z,15.80
2023-05-16T10:38:55.625Z,15.80
2023-05-16T10:39:59.488Z,15.80
2023-05-16T10:41:02.200Z,15.80
2023-05-16T10:42:05.904Z,15.80
2023-05-16T10:43:09.212Z,15.80
2023-05-16T10:44:18.265Z,15.80
2023-05-16T10:45:21.335Z,15.80
2023-05-16T10:46:24.515Z,15.80
2023-05-16T10:47:26.822Z,15.80
2023-05-16T10:48:32.014Z,15.70
2023-05-16T10:49:34.239Z,15.70
2023-05-16T10:50:38.871Z,15.70
2023-05-16T10:51:43.479Z,15.70
2023-05-16T10:52:45.810Z,15.60
2023-05-16T10:53:48.300Z,15.60
2023-05-16T10:54:54.544Z,15.50
2023-05-16T10:56:09.171Z,15.50
2023-05-16T10:57:17.262Z,15.40
2023-05-16T10:58:24.250Z,15.40
2023-05-16T10:59:28.536Z,15.40
2023-05-16T11:00:31.305Z,15.40
2023-05-16T11:01:34.784Z,15.40
2023-05-16T11:02:42.822Z,15.40
2023-05-16T11:04:11.810Z,15.40
2023-05-16T11:05:21.864Z,15.40
2023-05-16T11:06:25.156Z,15.40
2023-05-16T11:07:34.243Z,15.40
2023-05-16T11:08:36.629Z,15.40
2023-05-16T11:09:44.612Z,15.40
2023-05-16T11:10:46.852Z,15.50
2023-05-16T11:11:58.616Z,15.50
2023-05-16T11:13:07.520Z,15.50
2023-05-16T11:14:10.022Z,15.60
2023-05-16T11:15:20.507Z,15.70
2023-05-16T11:16:29.722Z,15.80
2023-05-16T11:17:41.460Z,15.80
2023-05-16T11:18:51.687Z,15.80
2023-05-16T11:19:59.453Z,15.90
2023-05-16T11:21:04.966Z,16.00
2023-05-16T11:22:12.461Z,16.00
2023-05-16T11:23:26.088Z,16.10
2023-05-16T11:24:30.107Z,16.10
2023-05-16T11:25:39.400Z,16.10
2023-05-16T11:26:41.768Z,16.10
2023-05-16T11:27:53.402Z,16.10
2023-05-16T11:28:56.326Z,16.10
2023-05-16T11:30:12.231Z,16.20
2023-05-16T11:31:14.456Z,16.20
2023-05-16T11:32:20.929Z,16.20
2023-05-16T11:33:24.178Z,16.10
2023-05-16T11:34:26.789Z,16.10
2023-05-16T11:35:30.891Z,16.10
2023-05-16T11:36:34.555Z,16.10
2023-05-16T11:37:38.579Z,16.10
2023-05-16T11:38:43.613Z,16.10
2023-05-16T11:39:46.077Z,16.00
2023-05-16T11:40:48.711Z,16.00
2023-05-16T11:41:51.334Z,16.00
2023-05-16T11:42:53.536Z,16.00
2023-05-16T11:43:56.187Z,16.00
2023-05-16T11:45:05.510Z,16.00
2023-05-16T11:46:10.923Z,16.00
2023-05-16T11:47:13.383Z,16.00
2023-05-16T11:48:24.781Z,16.00
2023-05-16T11:49:35.693Z,16.00
2023-05-16T11:50:39.348Z,16.00
2023-05-16T11:51:42.084Z,16.00
2023-05-16T11:52:54.211Z,16.00
2023-05-16T11:53:57.844Z,16.10
2023-05-16T11:55:01.572Z,16.10
2023-05-16T11:56:04.209Z,16.20
2023-05-16T11:57:06.901Z,16.30
2023-05-16T11:58:12.540Z,16.30
2023-05-16T11:59:15.822Z,16.40
2023-05-16T12:00:19.684Z,16.40
2023-05-16T12:01:22.147Z,16.40
2023-05-16T12:02:24.438Z,16.40
2023-05-16T12:03:26.876Z,16.40
2023-05-16T12:04:29.441Z,16.50
2023-05-16T12:05:35.734Z,16.50
2023-05-16T12:06:40.597Z,16.50
2023-05-16T12:07:44.704Z,16.50
2023-05-16T12:08:50.913Z,16.50
2023-05-16T12:09:56.195Z,16.50
2023-05-16T12:10:58.799Z,16.40
2023-05-16T12:12:06.641Z,16.30
2023-05-16T12:13:09.310Z,16.30
2023-05-16T12:14:12.898Z,16.40
2023-05-16T12:15:15.938Z,16.40
2023-05-16T12:16:19.070Z,16.50
2023-05-16T12:17:24.445Z,16.60
2023-05-16T12:18:29.719Z,16.70
2023-05-16T12:19:32.588Z,16.70
2023-05-16T12:20:35.178Z,16.90
2023-05-16T12:21:40.163Z,17.10
2023-05-16T12:22:43.838Z,17.20
2023-05-16T12:23:49.300Z,17.40
2023-05-16T12:24:51.657Z,17.50
2023-05-16T12:25:57.108Z,17.50
2023-05-16T12:26:59.314Z,17.40
2023-05-16T12:28:03.903Z,17.50
2023-05-16T12:29:06.824Z,17.40
2023-05-16T12:30:10.039Z,17.40
2023-05-16T12:31:31.240Z,17.40
2023-05-16T12:32:37.782Z,17.40
2023-05-16T12:33:40.357Z,17.30
2023-05-16T12:34:50.335Z,17.20
2023-05-16T12:35:53.088Z,17.10
2023-05-16T12:36:57.490Z,17.10
2023-05-16T12:38:00.165Z,17.00
2023-05-16T12:39:04.008Z,17.00
2023-05-16T12:40:09.820Z,17.00
2023-05-16T12:41:12.129Z,16.90
2023-05-16T12:42:14.819Z,16.90
2023-05-16T12:43:17.769Z,16.90
2023-05-16T12:44:20.217Z,16.90
2023-05-16T12:45:23.324Z,16.90
2023-05-16T12:46:26.599Z,16.90
2023-05-16T12:47:36.881Z,16.90
2023-05-16T12:48:41.870Z,16.90
2023-05-16T12:49:48.159Z,16.90
2023-05-16T12:50:52.200Z,17.10
2023-05-16T12:51:59.186Z,17.20
2023-05-16T12:53:01.658Z,17.40
2023-05-16T12:54:10.519Z,17.50
2023-05-16T12:55:12.975Z,17.60
2023-05-16T12:56:15.947Z,17.70
2023-05-16T12:57:20.086Z,17.70
2023-05-16T12:58:23.017Z,17.70
2023-05-16T12:59:25.663Z,17.70
2023-05-16T13:00:28.364Z,17.70
2023-05-16T13:01:31.114Z,17.70
2023-05-16T13:02:33.348Z,17.70
2023-05-16T13:03:36.817Z,17.70
2023-05-16T13:04:39.188Z,17.80
2023-05-16T13:05:41.753Z,17.80
2023-05-16T13:06:56.809Z,17.70
2023-05-16T13:08:02.823Z,17.70
2023-05-16T13:09:05.278Z,17.70
2023-05-16T13:10:10.708Z,17.80
2023-05-16T13:11:13.031Z,17.80
2023-05-16T13:12:15.933Z,17.80
2023-05-16T13:13:28.717Z,17.70
2023-05-16T13:14:37.655Z,17.60
2023-05-16T13:15:39.913Z,17.50
2023-05-16T13:16:42.264Z,17.50
2023-05-16T13:17:45.196Z,17.50
2023-05-16T13:18:47.640Z,17.40
2023-05-16T13:19:50.186Z,17.50
2023-05-16T13:20:53.045Z,17.70
2023-05-16T13:21:55.243Z,17.90
2023-05-16T13:22:57.619Z,18.30
2023-05-16T13:24:01.345Z,18.50
2023-05-16T13:25:06.966Z,18.50
2023-05-16T13:26:09.765Z,18.70
2023-05-16T13:27:11.981Z,19.00
2023-05-16T13:28:14.184Z,19.00
2023-05-16T13:29:16.556Z,19.20
2023-05-16T13:30:18.892Z,19.60
2023-05-16T13:31:22.303Z,20.40
2023-05-16T13:32:25.353Z,21.00
2023-05-16T13:33:27.831Z,21.00
2023-05-16T13:34:34.503Z,20.80
2023-05-16T13:35:36.732Z,20.60
2023-05-16T13:36:52.973Z,20.70
2023-05-16T13:37:56.866Z,21.30
2023-05-16T13:39:00.440Z,21.40
2023-05-16T13:40:02.865Z,21.50
2023-05-16T13:41:05.073Z,21.40
2023-05-16T13:42:07.339Z,21.20